sensor_id;sensor_type;location;lat;lon;timestamp;temperature;humidity
5846;DHT22;2949;50.778;7.094;2022-09-12T00:00:32;12.80;99.90
5846;DHT22;2949;50.778;7.094;2022-09-12T00:02:58;12.80;99.90
5846;DHT22;2949;50.778;7.094;2022-09-12T00:05:25;12.80;99.90
5846;DHT22;2949;50.778;7.094;2022-09-12T00:07:52;12.80;99.90
5846;DHT22;2949;50.778;7.094;2022-09-12T00:10:18;12.90;99.90
5846;DHT22;2949;50.778;7.094;2022-09-12T00:12:43;12.80;99.90
5846;DHT22;2949;50.778;7.094;2022-09-12T00:15:09;12.90;99.90
5846;DHT22;2949;50.778;7.094;2022-09-12T00:17:37;12.80;99.90
5846;DHT22;2949;50.778;7.094;2022-09-12T00:20:07;12.80;99.90
5846;DHT22;2949;50.778;7.094;2022-09-12T00:22:34;12.80;99.90
5846;DHT22;2949;50.778;7.094;2022-09-12T00:24:59;12.70;99.90
5846;DHT22;2949;50.778;7.094;2022-09-12T00:27:26;12.70;99.90
5846;DHT22;2949;50.778;7.094;2022-09-12T00:29:51;12.60;99.90
5846;DHT22;2949;50.778;7.094;2022-09-12T00:32:17;12.50;99.90
5846;DHT22;2949;50.778;7.094;2022-09-12T00:34:43;12.50;99.90
5846;DHT22;2949;50.778;7.094;2022-09-12T00:37:08;12.40;99.90
5846;DHT22;2949;50.778;7.094;2022-09-12T00:39:34;12.40;99.90
5846;DHT22;2949;50.778;7.094;2022-09-12T00:41:59;12.40;99.90
5846;DHT22;2949;50.778;7.094;2022-09-12T00:46:59;12.30;99.90
5846;DHT22;2949;50.778;7.094;2022-09-12T00:49:30;12.30;99.90
5846;DHT22;2949;50.778;7.094;2022-09-12T00:52:08;12.30;99.90
5846;DHT22;2949;50.778;7.094;2022-09-12T00:54:57;12.30;99.90
5846;DHT22;2949;50.778;7.094;2022-09-12T00:57:28;12.30;99.90
5846;DHT22;2949;50.778;7.094;2022-09-12T00:59:58;12.30;99.90
5846;DHT22;2949;50.778;7.094;2022-09-12T01:02:26;12.40;99.90
5846;DHT22;2949;50.778;7.094;2022-09-12T01:04:52;12.40;99.90
5846;DHT22;2949;50.778;7.094;2022-09-12T01:07:18;12.40;99.90
5846;DHT22;2949;50.778;7.094;2022-09-12T01:09:44;12.40;99.90
5846;DHT22;2949;50.778;7.094;2022-09-12T01:12:13;12.40;99.90
5846;DHT22;2949;50.778;7.094;2022-09-12T01:14:39;12.40;99.90
5846;DHT22;2949;50.778;7.094;2022-09-12T01:17:04;12.40;99.90
5846;DHT22;2949;50.778;7.094;2022-09-12T01:20:16;12.40;99.90
5846;DHT22;2949;50.778;7.094;2022-09-12T01:31:24;12.30;99.90
5846;DHT22;2949;50.778;7.094;2022-09-12T01:34:17;12.20;99.90
5846;DHT22;2949;50.778;7.094;2022-09-12T01:37:11;12.20;99.90
5846;DHT22;2949;50.778;7.094;2022-09-12T01:39:58;12.10;99.90
5846;DHT22;2949;50.778;7.094;2022-09-12T01:42:53;12.10;99.90
5846;DHT22;2949;50.778;7.094;2022-09-12T01:45:36;12.10;99.90
5846;DHT22;2949;50.778;7.094;2022-09-12T01:48:15;12.00;99.90
5846;DHT22;2949;50.778;7.094;2022-09-12T01:50:54;11.90;99.90
5846;DHT22;2949;50.778;7.094;2022-09-12T01:53:34;11.80;99.90
5846;DHT22;2949;50.778;7.094;2022-09-12T01:56:16;11.80;99.90
5846;DHT22;2949;50.778;7.094;2022-09-12T02:01:57;11.80;99.90
5846;DHT22;2949;50.778;7.094;2022-09-12T02:07:30;11.90;99.90
5846;DHT22;2949;50.778;7.094;2022-09-12T02:10:04;12.00;99.90
5846;DHT22;2949;50.778;7.094;2022-09-12T02:12:39;12.00;99.90
5846;DHT22;2949;50.778;7.094;2022-09-12T02:15:07;12.00;99.90
5846;DHT22;2949;50.778;7.094;2022-09-12T02:17:38;12.00;99.90
5846;DHT22;2949;50.778;7.094;2022-09-12T02:22:43;12.00;99.90
5846;DHT22;2949;50.778;7.094;2022-09-12T02:25:12;12.00;99.90
5846;DHT22;2949;50.778;7.094;2022-09-12T02:27:52;12.00;99.90
5846;DHT22;2949;50.778;7.094;2022-09-12T02:30:20;12.00;99.90
5846;DHT22;2949;50.778;7.094;2022-09-12T02:33:05;11.90;99.90
5846;DHT22;2949;50.778;7.094;2022-09-12T02:35:38;11.90;99.90
5846;DHT22;2949;50.778;7.094;2022-09-12T02:38:25;11.90;99.90
5846;DHT22;2949;50.778;7.094;2022-09-12T02:40:52;11.90;99.90
5846;DHT22;2949;50.778;7.094;2022-09-12T02:43:18;11.90;99.90
5846;DHT22;2949;50.778;7.094;2022-09-12T02:45:44;11.90;99.90
5846;DHT22;2949;50.778;7.094;2022-09-12T02:48:29;11.90;99.90
5846;DHT22;2949;50.778;7.094;2022-09-12T02:50:56;11.90;99.90
5846;DHT22;2949;50.778;7.094;2022-09-12T02:53:22;11.80;99.90
5846;DHT22;2949;50.778;7.094;2022-09-12T02:55:48;11.80;99.90
5846;DHT22;2949;50.778;7.094;2022-09-12T02:58:20;11.90;99.90
5846;DHT22;2949;50.778;7.094;2022-09-12T03:01:57;11.80;99.90
5846;DHT22;2949;50.778;7.094;2022-09-12T03:06:39;11.80;99.90
5846;DHT22;2949;50.778;7.094;2022-09-12T03:12:12;11.80;99.90
5846;DHT22;2949;50.778;7.094;2022-09-12T03:20:40;11.80;99.90
5846;DHT22;2949;50.778;7.094;2022-09-12T03:25:58;11.70;99.90
5846;DHT22;2949;50.778;7.094;2022-09-12T03:28:24;11.70;99.90
5846;DHT22;2949;50.778;7.094;2022-09-12T03:30:50;11.70;99.90
5846;DHT22;2949;50.778;7.094;2022-09-12T03:33:22;11.70;99.90
5846;DHT22;2949;50.778;7.094;2022-09-12T03:35:49;11.70;99.90
5846;DHT22;2949;50.778;7.094;2022-09-12T03:38:16;11.70;99.90
5846;DHT22;2949;50.778;7.094;2022-09-12T03:40:42;11.70;99.90
5846;DHT22;2949;50.778;7.094;2022-09-12T03:43:08;11.70;99.90
5846;DHT22;2949;50.778;7.094;2022-09-12T03:45:35;11.70;99.90
5846;DHT22;2949;50.778;7.094;2022-09-12T03:48:02;11.70;99.90
5846;DHT22;2949;50.778;7.094;2022-09-12T03:50:27;11.70;99.90
5846;DHT22;2949;50.778;7.094;2022-09-12T03:52:53;11.70;99.90
5846;DHT22;2949;50.778;7.094;2022-09-12T03:55:18;11.70;99.90
5846;DHT22;2949;50.778;7.094;2022-09-12T03:57:44;11.70;99.90
5846;DHT22;2949;50.778;7.094;2022-09-12T04:00:10;11.70;99.90
5846;DHT22;2949;50.778;7.094;2022-09-12T04:02:36;11.70;99.90
5846;DHT22;2949;50.778;7.094;2022-09-12T04:05:02;11.70;99.90
5846;DHT22;2949;50.778;7.094;2022-09-12T04:07:28;11.70;99.90
5846;DHT22;2949;50.778;7.094;2022-09-12T04:09:53;11.70;99.90
5846;DHT22;2949;50.778;7.094;2022-09-12T04:12:19;11.70;99.90
5846;DHT22;2949;50.778;7.094;2022-09-12T04:14:45;11.70;99.90
5846;DHT22;2949;50.778;7.094;2022-09-12T04:17:11;11.70;99.90
5846;DHT22;2949;50.778;7.094;2022-09-12T04:19:36;11.70;99.90
5846;DHT22;2949;50.778;7.094;2022-09-12T04:22:02;11.60;99.90
5846;DHT22;2949;50.778;7.094;2022-09-12T04:24:28;11.60;99.90
5846;DHT22;2949;50.778;7.094;2022-09-12T04:26:53;11.50;99.90
5846;DHT22;2949;50.778;7.094;2022-09-12T04:29:19;11.50;99.90
5846;DHT22;2949;50.778;7.094;2022-09-12T04:31:44;11.40;99.90
5846;DHT22;2949;50.778;7.094;2022-09-12T04:34:10;11.40;99.90
5846;DHT22;2949;50.778;7.094;2022-09-12T04:36:36;11.40;99.90
5846;DHT22;2949;50.778;7.094;2022-09-12T04:39:03;11.40;99.90
5846;DHT22;2949;50.778;7.094;2022-09-12T04:41:31;11.40;99.90
5846;DHT22;2949;50.778;7.094;2022-09-12T04:43:59;11.40;99.90
5846;DHT22;2949;50.778;7.094;2022-09-12T04:46:28;11.40;99.90
5846;DHT22;2949;50.778;7.094;2022-09-12T04:48:54;11.50;99.90
5846;DHT22;2949;50.778;7.094;2022-09-12T04:51:25;11.50;99.90
5846;DHT22;2949;50.778;7.094;2022-09-12T04:53:55;11.50;99.90
5846;DHT22;2949;50.778;7.094;2022-09-12T04:56:21;11.60;99.90
5846;DHT22;2949;50.778;7.094;2022-09-12T04:58:47;11.70;99.90
5846;DHT22;2949;50.778;7.094;2022-09-12T05:01:15;11.70;99.90
5846;DHT22;2949;50.778;7.094;2022-09-12T05:03:42;11.70;99.90
5846;DHT22;2949;50.778;7.094;2022-09-12T05:06:11;11.80;99.90
5846;DHT22;2949;50.778;7.094;2022-09-12T05:08:37;11.80;99.90
5846;DHT22;2949;50.778;7.094;2022-09-12T05:11:11;11.80;99.90
5846;DHT22;2949;50.778;7.094;2022-09-12T05:13:37;11.80;99.90
5846;DHT22;2949;50.778;7.094;2022-09-12T05:16:04;11.80;99.90
5846;DHT22;2949;50.778;7.094;2022-09-12T05:18:31;11.90;99.90
5846;DHT22;2949;50.778;7.094;2022-09-12T05:21:02;11.90;99.90
5846;DHT22;2949;50.778;7.094;2022-09-12T05:23:29;12.00;99.90
5846;DHT22;2949;50.778;7.094;2022-09-12T05:25:56;12.00;99.90
5846;DHT22;2949;50.778;7.094;2022-09-12T05:28:23;12.10;99.90
5846;DHT22;2949;50.778;7.094;2022-09-12T05:31:12;12.10;99.90
5846;DHT22;2949;50.778;7.094;2022-09-12T05:33:40;12.20;99.90
5846;DHT22;2949;50.778;7.094;2022-09-12T05:36:09;12.30;99.90
5846;DHT22;2949;50.778;7.094;2022-09-12T05:38:36;12.30;99.90
5846;DHT22;2949;50.778;7.094;2022-09-12T05:41:06;12.50;99.90
5846;DHT22;2949;50.778;7.094;2022-09-12T05:43:35;12.60;99.90
5846;DHT22;2949;50.778;7.094;2022-09-12T05:46:10;12.70;99.90
5846;DHT22;2949;50.778;7.094;2022-09-12T05:48:37;12.80;99.90
5846;DHT22;2949;50.778;7.094;2022-09-12T05:51:06;13.00;99.90
5846;DHT22;2949;50.778;7.094;2022-09-12T05:53:33;13.10;99.90
5846;DHT22;2949;50.778;7.094;2022-09-12T05:56:14;13.30;99.90
5846;DHT22;2949;50.778;7.094;2022-09-12T05:58:42;13.50;99.90
5846;DHT22;2949;50.778;7.094;2022-09-12T06:01:14;13.60;99.90
5846;DHT22;2949;50.778;7.094;2022-09-12T06:03:42;13.80;99.90
5846;DHT22;2949;50.778;7.094;2022-09-12T06:06:09;14.00;99.90
5846;DHT22;2949;50.778;7.094;2022-09-12T06:08:38;14.20;99.90
5846;DHT22;2949;50.778;7.094;2022-09-12T06:11:05;14.40;99.90
5846;DHT22;2949;50.778;7.094;2022-09-12T06:13:33;14.50;99.90
5846;DHT22;2949;50.778;7.094;2022-09-12T06:16:03;14.60;99.90
5846;DHT22;2949;50.778;7.094;2022-09-12T06:18:29;14.80;99.90
5846;DHT22;2949;50.778;7.094;2022-09-12T06:20:55;14.90;99.90
5846;DHT22;2949;50.778;7.094;2022-09-12T06:23:20;15.10;99.90
5846;DHT22;2949;50.778;7.094;2022-09-12T06:25:47;15.20;99.90
5846;DHT22;2949;50.778;7.094;2022-09-12T06:28:14;15.30;99.90
5846;DHT22;2949;50.778;7.094;2022-09-12T06:30:40;15.50;99.90
5846;DHT22;2949;50.778;7.094;2022-09-12T06:33:05;15.60;99.90
5846;DHT22;2949;50.778;7.094;2022-09-12T06:35:35;15.80;99.90
5846;DHT22;2949;50.778;7.094;2022-09-12T06:38:00;15.90;99.90
5846;DHT22;2949;50.778;7.094;2022-09-12T06:40:26;16.00;99.90
5846;DHT22;2949;50.778;7.094;2022-09-12T06:42:52;16.10;99.90
5846;DHT22;2949;50.778;7.094;2022-09-12T06:45:18;16.20;99.90
5846;DHT22;2949;50.778;7.094;2022-09-12T06:47:44;16.40;99.90
5846;DHT22;2949;50.778;7.094;2022-09-12T06:50:10;16.60;99.90
5846;DHT22;2949;50.778;7.094;2022-09-12T06:52:35;16.80;99.90
5846;DHT22;2949;50.778;7.094;2022-09-12T06:55:02;17.10;99.90
5846;DHT22;2949;50.778;7.094;2022-09-12T06:57:27;17.40;99.90
5846;DHT22;2949;50.778;7.094;2022-09-12T06:59:55;17.90;99.90
5846;DHT22;2949;50.778;7.094;2022-09-12T07:02:21;19.00;99.90
5846;DHT22;2949;50.778;7.094;2022-09-12T07:04:46;20.20;99.90
5846;DHT22;2949;50.778;7.094;2022-09-12T07:07:14;21.20;99.90
5846;DHT22;2949;50.778;7.094;2022-09-12T07:09:39;21.90;99.90
5846;DHT22;2949;50.778;7.094;2022-09-12T07:12:05;22.40;99.90
5846;DHT22;2949;50.778;7.094;2022-09-12T07:14:31;22.60;99.90
5846;DHT22;2949;50.778;7.094;2022-09-12T07:16:56;22.90;99.90
5846;DHT22;2949;50.778;7.094;2022-09-12T07:19:22;23.00;99.90
5846;DHT22;2949;50.778;7.094;2022-09-12T07:21:48;23.50;99.90
5846;DHT22;2949;50.778;7.094;2022-09-12T07:24:14;23.30;99.90
5846;DHT22;2949;50.778;7.094;2022-09-12T07:26:40;23.70;99.90
5846;DHT22;2949;50.778;7.094;2022-09-12T07:29:07;23.90;99.90
5846;DHT22;2949;50.778;7.094;2022-09-12T07:31:36;23.70;99.90
5846;DHT22;2949;50.778;7.094;2022-09-12T07:34:04;24.00;99.90
5846;DHT22;2949;50.778;7.094;2022-09-12T07:36:30;23.60;99.90
5846;DHT22;2949;50.778;7.094;2022-09-12T07:38:56;22.90;99.90
5846;DHT22;2949;50.778;7.094;2022-09-12T07:41:24;23.00;99.90
5846;DHT22;2949;50.778;7.094;2022-09-12T07:43:58;23.10;99.90
5846;DHT22;2949;50.778;7.094;2022-09-12T07:46:25;23.10;99.90
5846;DHT22;2949;50.778;7.094;2022-09-12T07:48:53;23.10;99.90
5846;DHT22;2949;50.778;7.094;2022-09-12T07:51:19;23.50;99.90
5846;DHT22;2949;50.778;7.094;2022-09-12T07:53:46;24.20;99.90
5846;DHT22;2949;50.778;7.094;2022-09-12T07:56:13;24.70;99.90
5846;DHT22;2949;50.778;7.094;2022-09-12T07:58:40;25.00;99.90
5846;DHT22;2949;50.778;7.094;2022-09-12T08:01:11;25.50;99.90
5846;DHT22;2949;50.778;7.094;2022-09-12T08:03:38;26.20;99.90
5846;DHT22;2949;50.778;7.094;2022-09-12T08:06:09;26.90;99.90
5846;DHT22;2949;50.778;7.094;2022-09-12T08:08:35;27.50;99.90
5846;DHT22;2949;50.778;7.094;2022-09-12T08:11:03;28.10;97.70
5846;DHT22;2949;50.778;7.094;2022-09-12T08:13:31;28.20;96.60
5846;DHT22;2949;50.778;7.094;2022-09-12T08:15:58;27.80;96.50
5846;DHT22;2949;50.778;7.094;2022-09-12T08:18:28;27.80;96.90
5846;DHT22;2949;50.778;7.094;2022-09-12T08:21:05;28.10;96.40
5846;DHT22;2949;50.778;7.094;2022-09-12T08:23:31;28.50;94.50
5846;DHT22;2949;50.778;7.094;2022-09-12T08:25:58;28.20;94.70
5846;DHT22;2949;50.778;7.094;2022-09-12T08:28:25;28.00;95.00
5846;DHT22;2949;50.778;7.094;2022-09-12T08:31:09;28.20;95.00
5846;DHT22;2949;50.778;7.094;2022-09-12T08:33:35;28.50;93.30
5846;DHT22;2949;50.778;7.094;2022-09-12T08:36:13;28.50;93.50
5846;DHT22;2949;50.778;7.094;2022-09-12T08:38:40;28.50;93.40
5846;DHT22;2949;50.778;7.094;2022-09-12T08:41:29;27.80;93.00
5846;DHT22;2949;50.778;7.094;2022-09-12T08:47:05;26.20;97.20
5846;DHT22;2949;50.778;7.094;2022-09-12T08:52:16;26.00;98.30
5846;DHT22;2949;50.778;7.094;2022-09-12T08:54:43;26.40;97.70
5846;DHT22;2949;50.778;7.094;2022-09-12T08:57:13;27.40;96.10
5846;DHT22;2949;50.778;7.094;2022-09-12T08:59:42;28.20;93.10
5846;DHT22;2949;50.778;7.094;2022-09-12T09:08:05;28.20;91.60
5846;DHT22;2949;50.778;7.094;2022-09-12T09:16:35;27.90;92.10
5846;DHT22;2949;50.778;7.094;2022-09-12T09:19:04;27.80;92.30
5846;DHT22;2949;50.778;7.094;2022-09-12T09:22:01;28.70;91.70
5846;DHT22;2949;50.778;7.094;2022-09-12T09:24:31;30.20;85.10
5846;DHT22;2949;50.778;7.094;2022-09-12T09:27:02;31.20;80.30
5846;DHT22;2949;50.778;7.094;2022-09-12T09:29:44;31.90;76.90
5846;DHT22;2949;50.778;7.094;2022-09-12T09:32:18;32.40;74.50
5846;DHT22;2949;50.778;7.094;2022-09-12T09:34:49;32.60;72.30
5846;DHT22;2949;50.778;7.094;2022-09-12T09:37:32;32.70;71.10
5846;DHT22;2949;50.778;7.094;2022-09-12T09:40:26;33.20;67.30
5846;DHT22;2949;50.778;7.094;2022-09-12T09:43:23;33.10;67.20
5846;DHT22;2949;50.778;7.094;2022-09-12T09:45:52;33.50;64.90
5846;DHT22;2949;50.778;7.094;2022-09-12T09:50:52;34.10;63.20
5846;DHT22;2949;50.778;7.094;2022-09-12T09:56:08;34.60;58.60
5846;DHT22;2949;50.778;7.094;2022-09-12T09:58:35;34.10;59.80
5846;DHT22;2949;50.778;7.094;2022-09-12T10:01:05;34.10;58.60
5846;DHT22;2949;50.778;7.094;2022-09-12T10:03:38;34.10;58.20
5846;DHT22;2949;50.778;7.094;2022-09-12T10:06:32;34.40;57.00
5846;DHT22;2949;50.778;7.094;2022-09-12T10:09:32;34.30;56.10
5846;DHT22;2949;50.778;7.094;2022-09-12T10:11:59;33.80;56.90
5846;DHT22;2949;50.778;7.094;2022-09-12T10:14:36;33.70;56.40
5846;DHT22;2949;50.778;7.094;2022-09-12T10:17:27;33.70;54.80
5846;DHT22;2949;50.778;7.094;2022-09-12T10:19:54;33.20;56.00
5846;DHT22;2949;50.778;7.094;2022-09-12T10:22:26;32.80;55.90
5846;DHT22;2949;50.778;7.094;2022-09-12T10:24:57;32.20;57.50
5846;DHT22;2949;50.778;7.094;2022-09-12T10:27:26;31.90;58.10
5846;DHT22;2949;50.778;7.094;2022-09-12T10:30:02;32.00;59.50
5846;DHT22;2949;50.778;7.094;2022-09-12T10:32:49;32.00;58.60
5846;DHT22;2949;50.778;7.094;2022-09-12T10:35:19;32.40;57.70
5846;DHT22;2949;50.778;7.094;2022-09-12T10:38:00;32.90;56.50
5846;DHT22;2949;50.778;7.094;2022-09-12T10:40:29;33.00;55.80
5846;DHT22;2949;50.778;7.094;2022-09-12T10:42:57;32.70;55.60
5846;DHT22;2949;50.778;7.094;2022-09-12T10:47:52;31.60;57.20
5846;DHT22;2949;50.778;7.094;2022-09-12T10:50:28;31.50;57.30
5846;DHT22;2949;50.778;7.094;2022-09-12T11:01:43;30.50;58.50
5846;DHT22;2949;50.778;7.094;2022-09-12T11:07:33;28.30;61.80
5846;DHT22;2949;50.778;7.094;2022-09-12T11:15:43;27.10;65.40
5846;DHT22;2949;50.778;7.094;2022-09-12T11:27:16;26.10;72.00
5846;DHT22;2949;50.778;7.094;2022-09-12T11:30:01;26.00;72.40
5846;DHT22;2949;50.778;7.094;2022-09-12T11:35:26;25.90;68.40
5846;DHT22;2949;50.778;7.094;2022-09-12T11:40:45;25.80;69.30
5846;DHT22;2949;50.778;7.094;2022-09-12T11:46:01;25.90;62.50
5846;DHT22;2949;50.778;7.094;2022-09-12T11:48:32;25.70;67.60
5846;DHT22;2949;50.778;7.094;2022-09-12T11:50:59;25.70;69.90
5846;DHT22;2949;50.778;7.094;2022-09-12T11:53:30;25.70;66.60
5846;DHT22;2949;50.778;7.094;2022-09-12T11:56:05;25.70;65.40
5846;DHT22;2949;50.778;7.094;2022-09-12T11:58:34;25.60;66.40
5846;DHT22;2949;50.778;7.094;2022-09-12T12:01:17;25.60;63.60
5846;DHT22;2949;50.778;7.094;2022-09-12T12:03:48;25.50;62.60
5846;DHT22;2949;50.778;7.094;2022-09-12T12:06:30;25.50;64.10
5846;DHT22;2949;50.778;7.094;2022-09-12T12:08:57;25.60;64.20
5846;DHT22;2949;50.778;7.094;2022-09-12T12:11:29;25.60;64.10
5846;DHT22;2949;50.778;7.094;2022-09-12T12:14:01;25.70;64.70
5846;DHT22;2949;50.778;7.094;2022-09-12T12:16:30;25.80;62.70
5846;DHT22;2949;50.778;7.094;2022-09-12T12:18:58;25.70;60.00
5846;DHT22;2949;50.778;7.094;2022-09-12T12:34:35;25.40;64.80
5846;DHT22;2949;50.778;7.094;2022-09-12T12:47:45;25.50;67.70
5846;DHT22;2949;50.778;7.094;2022-09-12T12:52:52;25.60;69.80
5846;DHT22;2949;50.778;7.094;2022-09-12T12:55:28;25.50;68.90
5846;DHT22;2949;50.778;7.094;2022-09-12T12:57:58;25.40;69.00
5846;DHT22;2949;50.778;7.094;2022-09-12T13:08:10;25.40;67.70
5846;DHT22;2949;50.778;7.094;2022-09-12T13:10:36;25.40;70.80
5846;DHT22;2949;50.778;7.094;2022-09-12T13:13:05;25.50;73.20
5846;DHT22;2949;50.778;7.094;2022-09-12T13:18:13;25.60;73.50
5846;DHT22;2949;50.778;7.094;2022-09-12T13:20:54;25.70;73.20
5846;DHT22;2949;50.778;7.094;2022-09-12T13:23:28;25.60;71.40
5846;DHT22;2949;50.778;7.094;2022-09-12T13:25:56;25.60;73.00
5846;DHT22;2949;50.778;7.094;2022-09-12T13:28:25;25.60;73.30
5846;DHT22;2949;50.778;7.094;2022-09-12T13:33:42;25.60;75.40
5846;DHT22;2949;50.778;7.094;2022-09-12T13:45:01;25.60;75.20
5846;DHT22;2949;50.778;7.094;2022-09-12T13:47:41;25.60;77.00
5846;DHT22;2949;50.778;7.094;2022-09-12T13:50:22;25.70;76.10
5846;DHT22;2949;50.778;7.094;2022-09-12T13:52:51;25.80;75.30
5846;DHT22;2949;50.778;7.094;2022-09-12T13:55:35;25.80;74.50
5846;DHT22;2949;50.778;7.094;2022-09-12T13:58:05;25.70;75.00
5846;DHT22;2949;50.778;7.094;2022-09-12T14:00:32;25.70;74.90
5846;DHT22;2949;50.778;7.094;2022-09-12T14:03:00;25.60;75.80
5846;DHT22;2949;50.778;7.094;2022-09-12T14:05:52;25.70;76.50
5846;DHT22;2949;50.778;7.094;2022-09-12T14:08:19;25.70;76.30
5846;DHT22;2949;50.778;7.094;2022-09-12T14:10:47;25.80;74.80
5846;DHT22;2949;50.778;7.094;2022-09-12T14:13:19;25.70;74.10
5846;DHT22;2949;50.778;7.094;2022-09-12T14:15:48;25.60;76.20
5846;DHT22;2949;50.778;7.094;2022-09-12T14:18:29;25.70;75.60
5846;DHT22;2949;50.778;7.094;2022-09-12T14:21:08;25.80;75.10
5846;DHT22;2949;50.778;7.094;2022-09-12T14:23:41;25.80;76.30
5846;DHT22;2949;50.778;7.094;2022-09-12T14:26:11;25.80;74.80
5846;DHT22;2949;50.778;7.094;2022-09-12T14:28:41;25.80;74.30
5846;DHT22;2949;50.778;7.094;2022-09-12T14:33:48;25.70;74.60
5846;DHT22;2949;50.778;7.094;2022-09-12T14:38:51;25.70;74.60
5846;DHT22;2949;50.778;7.094;2022-09-12T14:41:26;25.70;74.70
5846;DHT22;2949;50.778;7.094;2022-09-12T14:43:57;25.70;75.80
5846;DHT22;2949;50.778;7.094;2022-09-12T14:46:35;25.80;74.60
5846;DHT22;2949;50.778;7.094;2022-09-12T14:51:35;25.80;73.00
5846;DHT22;2949;50.778;7.094;2022-09-12T14:54:02;25.70;73.80
5846;DHT22;2949;50.778;7.094;2022-09-12T14:56:53;25.70;72.50
5846;DHT22;2949;50.778;7.094;2022-09-12T14:59:40;25.60;72.90
5846;DHT22;2949;50.778;7.094;2022-09-12T15:02:20;25.70;73.00
5846;DHT22;2949;50.778;7.094;2022-09-12T15:04:47;25.70;71.80
5846;DHT22;2949;50.778;7.094;2022-09-12T15:09:52;25.70;71.30
5846;DHT22;2949;50.778;7.094;2022-09-12T15:12:18;25.80;71.50
5846;DHT22;2949;50.778;7.094;2022-09-12T15:14:44;25.90;72.50
5846;DHT22;2949;50.778;7.094;2022-09-12T15:17:09;25.90;70.80
5846;DHT22;2949;50.778;7.094;2022-09-12T15:19:35;26.00;69.50
5846;DHT22;2949;50.778;7.094;2022-09-12T15:22:00;26.00;69.90
5846;DHT22;2949;50.778;7.094;2022-09-12T15:24:26;25.90;70.30
5846;DHT22;2949;50.778;7.094;2022-09-12T15:26:51;25.90;70.10
5846;DHT22;2949;50.778;7.094;2022-09-12T15:29:17;25.90;68.60
5846;DHT22;2949;50.778;7.094;2022-09-12T15:31:45;25.80;68.30
5846;DHT22;2949;50.778;7.094;2022-09-12T15:34:11;25.90;68.50
5846;DHT22;2949;50.778;7.094;2022-09-12T15:36:37;25.80;68.50
5846;DHT22;2949;50.778;7.094;2022-09-12T15:39:02;25.80;68.50
5846;DHT22;2949;50.778;7.094;2022-09-12T15:41:31;25.90;68.60
5846;DHT22;2949;50.778;7.094;2022-09-12T15:43:57;25.90;68.20
5846;DHT22;2949;50.778;7.094;2022-09-12T15:46:23;25.90;66.90
5846;DHT22;2949;50.778;7.094;2022-09-12T15:48:49;26.00;67.30
5846;DHT22;2949;50.778;7.094;2022-09-12T15:51:19;26.00;67.60
5846;DHT22;2949;50.778;7.094;2022-09-12T15:53:46;26.00;66.00
5846;DHT22;2949;50.778;7.094;2022-09-12T15:56:14;25.90;65.60
5846;DHT22;2949;50.778;7.094;2022-09-12T15:58:40;25.80;66.10
5846;DHT22;2949;50.778;7.094;2022-09-12T16:01:05;25.70;65.50
5846;DHT22;2949;50.778;7.094;2022-09-12T16:03:31;25.60;66.60
5846;DHT22;2949;50.778;7.094;2022-09-12T16:06:01;25.60;66.60
5846;DHT22;2949;50.778;7.094;2022-09-12T16:08:28;25.50;67.50
5846;DHT22;2949;50.778;7.094;2022-09-12T16:10:58;25.50;66.70
5846;DHT22;2949;50.778;7.094;2022-09-12T16:13:24;25.60;66.10
5846;DHT22;2949;50.778;7.094;2022-09-12T16:15:50;25.60;65.10
5846;DHT22;2949;50.778;7.094;2022-09-12T16:18:17;25.50;65.80
5846;DHT22;2949;50.778;7.094;2022-09-12T16:20:42;25.40;65.70
5846;DHT22;2949;50.778;7.094;2022-09-12T16:23:11;25.40;66.60
5846;DHT22;2949;50.778;7.094;2022-09-12T16:25:38;25.30;65.50
5846;DHT22;2949;50.778;7.094;2022-09-12T16:28:04;25.30;65.80
5846;DHT22;2949;50.778;7.094;2022-09-12T16:30:31;25.30;65.00
5846;DHT22;2949;50.778;7.094;2022-09-12T16:32:57;25.20;65.40
5846;DHT22;2949;50.778;7.094;2022-09-12T16:35:22;25.20;65.10
5846;DHT22;2949;50.778;7.094;2022-09-12T16:37:48;25.20;65.00
5846;DHT22;2949;50.778;7.094;2022-09-12T16:40:13;25.30;65.50
5846;DHT22;2949;50.778;7.094;2022-09-12T16:42:42;25.30;64.80
5846;DHT22;2949;50.778;7.094;2022-09-12T16:45:08;25.30;64.20
5846;DHT22;2949;50.778;7.094;2022-09-12T16:47:33;25.30;64.90
5846;DHT22;2949;50.778;7.094;2022-09-12T16:49:59;25.30;65.20
5846;DHT22;2949;50.778;7.094;2022-09-12T16:52:25;25.20;64.00
5846;DHT22;2949;50.778;7.094;2022-09-12T16:54:50;25.20;64.40
5846;DHT22;2949;50.778;7.094;2022-09-12T16:57:16;25.20;64.80
5846;DHT22;2949;50.778;7.094;2022-09-12T16:59:41;25.10;65.10
5846;DHT22;2949;50.778;7.094;2022-09-12T17:02:11;25.10;65.20
5846;DHT22;2949;50.778;7.094;2022-09-12T17:04:36;25.10;64.90
5846;DHT22;2949;50.778;7.094;2022-09-12T17:07:02;25.10;65.20
5846;DHT22;2949;50.778;7.094;2022-09-12T17:09:27;25.10;65.70
5846;DHT22;2949;50.778;7.094;2022-09-12T17:11:53;25.00;65.10
5846;DHT22;2949;50.778;7.094;2022-09-12T17:14:20;25.00;65.40
5846;DHT22;2949;50.778;7.094;2022-09-12T17:16:46;24.90;66.10
5846;DHT22;2949;50.778;7.094;2022-09-12T17:19:16;24.80;66.50
5846;DHT22;2949;50.778;7.094;2022-09-12T17:21:43;24.60;66.80
5846;DHT22;2949;50.778;7.094;2022-09-12T17:24:10;24.40;67.80
5846;DHT22;2949;50.778;7.094;2022-09-12T17:26:35;24.20;67.90
5846;DHT22;2949;50.778;7.094;2022-09-12T17:29:01;24.10;68.80
5846;DHT22;2949;50.778;7.094;2022-09-12T17:31:27;23.90;69.20
5846;DHT22;2949;50.778;7.094;2022-09-12T17:33:57;23.70;69.20
5846;DHT22;2949;50.778;7.094;2022-09-12T17:36:23;23.60;70.50
5846;DHT22;2949;50.778;7.094;2022-09-12T17:38:49;23.50;70.40
5846;DHT22;2949;50.778;7.094;2022-09-12T17:41:18;23.40;71.50
5846;DHT22;2949;50.778;7.094;2022-09-12T17:43:45;23.30;71.70
5846;DHT22;2949;50.778;7.094;2022-09-12T17:46:14;23.20;72.10
5846;DHT22;2949;50.778;7.094;2022-09-12T17:48:40;23.00;73.10
5846;DHT22;2949;50.778;7.094;2022-09-12T17:51:07;22.90;74.00
5846;DHT22;2949;50.778;7.094;2022-09-12T17:53:33;22.80;74.40
5846;DHT22;2949;50.778;7.094;2022-09-12T17:56:06;22.70;75.30
5846;DHT22;2949;50.778;7.094;2022-09-12T17:58:33;22.50;76.40
5846;DHT22;2949;50.778;7.094;2022-09-12T18:01:09;22.40;77.40
5846;DHT22;2949;50.778;7.094;2022-09-12T18:03:55;22.20;78.40
5846;DHT22;2949;50.778;7.094;2022-09-12T18:06:22;22.10;79.40
5846;DHT22;2949;50.778;7.094;2022-09-12T18:08:47;22.10;80.10
5846;DHT22;2949;50.778;7.094;2022-09-12T18:11:13;22.00;80.70
5846;DHT22;2949;50.778;7.094;2022-09-12T18:13:38;21.90;81.50
5846;DHT22;2949;50.778;7.094;2022-09-12T18:16:06;21.90;82.60
5846;DHT22;2949;50.778;7.094;2022-09-12T18:18:33;21.80;83.20
5846;DHT22;2949;50.778;7.094;2022-09-12T18:20:59;21.70;84.30
5846;DHT22;2949;50.778;7.094;2022-09-12T18:23:24;21.60;85.10
5846;DHT22;2949;50.778;7.094;2022-09-12T18:26:03;21.50;85.90
5846;DHT22;2949;50.778;7.094;2022-09-12T18:28:37;21.40;86.80
5846;DHT22;2949;50.778;7.094;2022-09-12T18:31:08;21.30;89.10
5846;DHT22;2949;50.778;7.094;2022-09-12T18:33:34;21.20;88.90
5846;DHT22;2949;50.778;7.094;2022-09-12T18:36:07;21.20;90.00
5846;DHT22;2949;50.778;7.094;2022-09-12T18:38:33;21.20;90.20
5846;DHT22;2949;50.778;7.094;2022-09-12T18:41:06;21.20;90.40
5846;DHT22;2949;50.778;7.094;2022-09-12T18:43:33;21.20;90.70
5846;DHT22;2949;50.778;7.094;2022-09-12T18:46:07;21.10;91.00
5846;DHT22;2949;50.778;7.094;2022-09-12T18:48:33;21.00;91.30
5846;DHT22;2949;50.778;7.094;2022-09-12T18:51:16;20.90;91.80
5846;DHT22;2949;50.778;7.094;2022-09-12T18:53:46;20.90;92.20